BAW754 EGLL-LSGG
Flight info
| Callsign | BAW754 |
|---|---|
| Flight time | N/A |
| Altitude | 37000 |
| Route | MODMI M185 MID UL612 VEULE DCT PEKIM DCT PILUL DCT PIMUP/N0423F270 DCT PIXIS DCT PIBAT/N0398F230 DCT LUSAR |
| Aircraft | A319/M-SDE3FGHIRWY/LB1 |
Departure
| Time | N/A |
|---|---|
| Airport | London Heathrow Airport (EGLL) |
Arrival
| Time | 2026-05-07 15:01 |
|---|---|
| Airport | Geneva International Airport (LSGG) |
| Time | Latitude | Longitude | Altitude | Speed | Heading |
|---|---|---|---|---|---|
| 2026-05-07 14:03 | 49.78561 | 0.72400 | 37151 ft | 424 kts | 142° |
| 2026-05-07 14:04 | 49.76402 | 0.75501 | 37070 ft | 423 kts | 141° |
| 2026-05-07 14:04 | 49.72081 | 0.81688 | 37077 ft | 423 kts | 140° |
| 2026-05-07 14:05 | 49.67785 | 0.87908 | 37073 ft | 423 kts | 139° |
| 2026-05-07 14:05 | 49.63575 | 0.94019 | 37076 ft | 426 kts | 139° |
| 2026-05-07 14:06 | 49.59221 | 1.00303 | 37057 ft | 429 kts | 139° |
| 2026-05-07 14:06 | 49.54848 | 1.06582 | 37052 ft | 430 kts | 139° |
| 2026-05-07 14:07 | 49.50467 | 1.12856 | 37040 ft | 430 kts | 139° |
| 2026-05-07 14:07 | 49.46079 | 1.19112 | 37042 ft | 430 kts | 139° |
| 2026-05-07 14:08 | 49.42431 | 1.24312 | 37043 ft | 430 kts | 139° |
| 2026-05-07 14:08 | 49.38603 | 1.29759 | 37053 ft | 430 kts | 139° |
| 2026-05-07 14:09 | 49.34212 | 1.35983 | 37042 ft | 430 kts | 139° |
| 2026-05-07 14:09 | 49.29808 | 1.42211 | 37046 ft | 431 kts | 139° |
| 2026-05-07 14:10 | 49.25405 | 1.48427 | 37046 ft | 431 kts | 139° |
| 2026-05-07 14:10 | 49.20990 | 1.54654 | 37064 ft | 431 kts | 140° |
| 2026-05-07 14:11 | 49.16573 | 1.60849 | 37060 ft | 431 kts | 140° |
| 2026-05-07 14:11 | 49.12148 | 1.67036 | 37055 ft | 431 kts | 140° |
| 2026-05-07 14:12 | 49.07724 | 1.73216 | 37058 ft | 431 kts | 140° |
| 2026-05-07 14:12 | 49.03309 | 1.79385 | 37038 ft | 430 kts | 140° |
| 2026-05-07 14:13 | 48.98911 | 1.85508 | 37041 ft | 430 kts | 140° |
| 2026-05-07 14:13 | 48.94485 | 1.91638 | 37041 ft | 430 kts | 140° |
| 2026-05-07 14:14 | 48.90053 | 1.97755 | 37039 ft | 430 kts | 140° |
| 2026-05-07 14:14 | 48.85628 | 2.03862 | 37040 ft | 430 kts | 140° |
| 2026-05-07 14:15 | 48.81161 | 2.09999 | 37045 ft | 430 kts | 140° |
| 2026-05-07 14:15 | 48.76755 | 2.16050 | 37043 ft | 430 kts | 140° |
| 2026-05-07 14:16 | 48.72310 | 2.22142 | 37040 ft | 430 kts | 140° |
| 2026-05-07 14:16 | 48.67861 | 2.28221 | 37041 ft | 431 kts | 140° |
| 2026-05-07 14:17 | 48.63404 | 2.34287 | 37045 ft | 431 kts | 140° |
| 2026-05-07 14:17 | 48.58941 | 2.40345 | 37041 ft | 431 kts | 140° |
| 2026-05-07 14:18 | 48.54477 | 2.46400 | 37047 ft | 431 kts | 140° |
| 2026-05-07 14:18 | 48.50039 | 2.52405 | 37055 ft | 431 kts | 140° |
| 2026-05-07 14:19 | 48.45567 | 2.58447 | 37056 ft | 432 kts | 141° |
| 2026-05-07 14:19 | 48.41083 | 2.64476 | 37054 ft | 432 kts | 141° |
| 2026-05-07 14:20 | 48.36595 | 2.70502 | 37048 ft | 433 kts | 141° |
| 2026-05-07 14:20 | 48.32099 | 2.76515 | 37053 ft | 433 kts | 141° |
| 2026-05-07 14:21 | 48.27592 | 2.82525 | 37060 ft | 433 kts | 141° |
| 2026-05-07 14:21 | 48.22925 | 2.88226 | 37059 ft | 432 kts | 145° |
| 2026-05-07 14:22 | 48.18118 | 2.93635 | 37050 ft | 432 kts | 146° |
| 2026-05-07 14:22 | 48.13341 | 2.99003 | 37051 ft | 432 kts | 145° |
| 2026-05-07 14:23 | 48.08505 | 3.04347 | 37048 ft | 430 kts | 152° |
| 2026-05-07 14:23 | 48.03122 | 3.08113 | 37050 ft | 427 kts | 160° |
| 2026-05-07 14:24 | 47.97649 | 3.11557 | 37040 ft | 427 kts | 160° |
| 2026-05-07 14:24 | 47.92171 | 3.14993 | 37043 ft | 427 kts | 160° |
| 2026-05-07 14:25 | 47.86691 | 3.18421 | 37045 ft | 427 kts | 160° |
| 2026-05-07 14:25 | 47.81212 | 3.21850 | 37047 ft | 427 kts | 160° |
| 2026-05-07 14:26 | 47.75732 | 3.25265 | 37041 ft | 427 kts | 160° |
| 2026-05-07 14:26 | 47.70256 | 3.28679 | 37036 ft | 427 kts | 160° |
| 2026-05-07 14:27 | 47.64780 | 3.32095 | 37046 ft | 427 kts | 160° |
| 2026-05-07 14:27 | 47.59304 | 3.35500 | 37046 ft | 426 kts | 160° |
| 2026-05-07 14:28 | 47.53829 | 3.38880 | 37022 ft | 427 kts | 161° |
| 2026-05-07 14:28 | 47.48385 | 3.42226 | 37029 ft | 427 kts | 161° |
| 2026-05-07 14:29 | 47.42908 | 3.45593 | 37030 ft | 427 kts | 161° |
| 2026-05-07 14:29 | 47.37426 | 3.48973 | 37036 ft | 427 kts | 161° |
| 2026-05-07 14:30 | 47.31948 | 3.52336 | 37024 ft | 427 kts | 161° |
| 2026-05-07 14:30 | 47.26462 | 3.55688 | 37030 ft | 427 kts | 161° |
| 2026-05-07 14:31 | 47.20973 | 3.59042 | 37032 ft | 427 kts | 161° |
| 2026-05-07 14:31 | 47.15486 | 3.62382 | 37032 ft | 427 kts | 161° |
| 2026-05-07 14:32 | 47.09997 | 3.65722 | 37024 ft | 427 kts | 161° |
| 2026-05-07 14:32 | 47.04508 | 3.69048 | 37031 ft | 427 kts | 161° |
| 2026-05-07 14:33 | 46.99035 | 3.72455 | 37032 ft | 429 kts | 155° |
| 2026-05-07 14:33 | 46.96544 | 3.74788 | 37034 ft | 434 kts | 144° |
| 2026-05-07 14:33 | 46.94354 | 3.77844 | 37034 ft | 438 kts | 133° |
| 2026-05-07 14:33 | 46.92592 | 3.81496 | 37030 ft | 442 kts | 121° |
| 2026-05-07 14:34 | 46.91326 | 3.85599 | 37027 ft | 445 kts | 113° |
| 2026-05-07 14:34 | 46.90214 | 3.89849 | 36842 ft | 453 kts | 114° |
| 2026-05-07 14:34 | 46.89069 | 3.94176 | 36581 ft | 459 kts | 114° |
| 2026-05-07 14:34 | 46.87908 | 3.98537 | 36324 ft | 460 kts | 114° |
| 2026-05-07 14:35 | 46.86746 | 4.02891 | 36069 ft | 459 kts | 114° |
| 2026-05-07 14:35 | 46.85591 | 4.07225 | 35818 ft | 457 kts | 114° |
| 2026-05-07 14:35 | 46.84437 | 4.11554 | 35562 ft | 456 kts | 114° |
| 2026-05-07 14:35 | 46.83285 | 4.15854 | 35315 ft | 455 kts | 114° |
| 2026-05-07 14:36 | 46.82132 | 4.20149 | 35072 ft | 453 kts | 114° |
| 2026-05-07 14:36 | 46.80996 | 4.24424 | 34826 ft | 452 kts | 111° |
| 2026-05-07 14:36 | 46.80153 | 4.28845 | 34595 ft | 450 kts | 103° |
| 2026-05-07 14:36 | 46.79522 | 4.33293 | 34223 ft | 447 kts | 103° |
| 2026-05-07 14:37 | 46.78886 | 4.37734 | 33734 ft | 446 kts | 103° |
| 2026-05-07 14:37 | 46.77605 | 4.46504 | 32858 ft | 438 kts | 104° |
| 2026-05-07 14:37 | 46.76966 | 4.50828 | 32426 ft | 435 kts | 104° |
| 2026-05-07 14:38 | 46.76327 | 4.55127 | 32001 ft | 432 kts | 104° |
| 2026-05-07 14:38 | 46.75703 | 4.59340 | 31587 ft | 429 kts | 104° |
| 2026-05-07 14:38 | 46.75077 | 4.63576 | 31172 ft | 426 kts | 104° |
| 2026-05-07 14:38 | 46.74451 | 4.67788 | 30760 ft | 423 kts | 104° |
| 2026-05-07 14:39 | 46.73832 | 4.71957 | 30372 ft | 420 kts | 104° |
| 2026-05-07 14:39 | 46.73215 | 4.76110 | 29956 ft | 417 kts | 104° |
| 2026-05-07 14:39 | 46.72601 | 4.80227 | 29554 ft | 414 kts | 104° |
| 2026-05-07 14:39 | 46.71990 | 4.84308 | 29175 ft | 410 kts | 104° |
| 2026-05-07 14:40 | 46.71385 | 4.88347 | 28804 ft | 406 kts | 104° |
| 2026-05-07 14:40 | 46.70781 | 4.92353 | 28445 ft | 403 kts | 104° |
| 2026-05-07 14:40 | 46.70181 | 4.96320 | 28079 ft | 399 kts | 104° |
| 2026-05-07 14:40 | 46.69584 | 5.00261 | 27713 ft | 396 kts | 104° |
| 2026-05-07 14:41 | 46.69190 | 5.02849 | 27474 ft | 394 kts | 104° |
| 2026-05-07 14:41 | 46.68597 | 5.06734 | 27107 ft | 391 kts | 104° |
| 2026-05-07 14:41 | 46.68009 | 5.10581 | 26733 ft | 388 kts | 104° |
| 2026-05-07 14:41 | 46.67423 | 5.14404 | 26364 ft | 385 kts | 104° |
| 2026-05-07 14:42 | 46.66842 | 5.18187 | 25983 ft | 382 kts | 104° |
| 2026-05-07 14:42 | 46.66267 | 5.21959 | 25602 ft | 380 kts | 103° |
| 2026-05-07 14:42 | 46.65706 | 5.25697 | 25223 ft | 377 kts | 103° |
| 2026-05-07 14:42 | 46.65148 | 5.29415 | 24828 ft | 375 kts | 103° |
| 2026-05-07 14:43 | 46.64592 | 5.33112 | 24438 ft | 373 kts | 103° |
| 2026-05-07 14:43 | 46.64036 | 5.36790 | 24038 ft | 371 kts | 103° |
| 2026-05-07 14:43 | 46.63479 | 5.40451 | 23640 ft | 370 kts | 103° |
| 2026-05-07 14:43 | 46.62923 | 5.44091 | 23199 ft | 368 kts | 103° |
| 2026-05-07 14:44 | 46.62372 | 5.47709 | 22804 ft | 364 kts | 103° |
| 2026-05-07 14:44 | 46.61825 | 5.51284 | 22411 ft | 361 kts | 104° |
| 2026-05-07 14:44 | 46.61273 | 5.54835 | 22016 ft | 358 kts | 104° |
| 2026-05-07 14:44 | 46.60725 | 5.58356 | 21626 ft | 355 kts | 104° |
| 2026-05-07 14:45 | 46.60185 | 5.61799 | 21239 ft | 353 kts | 104° |
| 2026-05-07 14:45 | 46.59639 | 5.65261 | 20846 ft | 351 kts | 104° |
| 2026-05-07 14:45 | 46.59094 | 5.68703 | 20457 ft | 348 kts | 104° |
| 2026-05-07 14:45 | 46.58554 | 5.72130 | 20068 ft | 346 kts | 104° |
| 2026-05-07 14:46 | 46.58019 | 5.75535 | 19682 ft | 344 kts | 104° |
| 2026-05-07 14:46 | 46.57245 | 5.78803 | 19294 ft | 341 kts | 118° |
| 2026-05-07 14:46 | 46.56011 | 5.81698 | 18915 ft | 336 kts | 131° |
| 2026-05-07 14:46 | 46.54388 | 5.84106 | 18520 ft | 330 kts | 144° |
| 2026-05-07 14:47 | 46.52550 | 5.86002 | 18126 ft | 319 kts | 148° |
| 2026-05-07 14:47 | 46.50734 | 5.87814 | 17786 ft | 313 kts | 148° |
| 2026-05-07 14:47 | 46.48945 | 5.89612 | 17420 ft | 312 kts | 148° |
| 2026-05-07 14:47 | 46.47166 | 5.91405 | 17043 ft | 311 kts | 148° |
| 2026-05-07 14:48 | 46.45393 | 5.93191 | 16668 ft | 310 kts | 148° |
| 2026-05-07 14:48 | 46.43618 | 5.94972 | 16294 ft | 310 kts | 148° |
| 2026-05-07 14:48 | 46.41847 | 5.96743 | 15919 ft | 310 kts | 148° |
| 2026-05-07 14:48 | 46.40070 | 5.98518 | 15525 ft | 311 kts | 148° |
| 2026-05-07 14:49 | 46.38286 | 6.00299 | 15151 ft | 312 kts | 148° |
| 2026-05-07 14:49 | 46.36403 | 6.01835 | 14744 ft | 309 kts | 163° |
| 2026-05-07 14:49 | 46.34321 | 6.02334 | 14401 ft | 301 kts | 184° |
| 2026-05-07 14:49 | 46.32304 | 6.01750 | 14034 ft | 295 kts | 204° |
| 2026-05-07 14:50 | 46.30584 | 6.00214 | 13652 ft | 289 kts | 224° |
| 2026-05-07 14:50 | 46.29166 | 5.98165 | 13279 ft | 287 kts | 226° |
| 2026-05-07 14:50 | 46.27789 | 5.96150 | 12906 ft | 285 kts | 226° |
| 2026-05-07 14:50 | 46.26400 | 5.94120 | 12565 ft | 283 kts | 226° |
| 2026-05-07 14:51 | 46.25020 | 5.92106 | 12209 ft | 282 kts | 225° |
| 2026-05-07 14:51 | 46.23639 | 5.90093 | 11823 ft | 282 kts | 225° |
| 2026-05-07 14:51 | 46.22262 | 5.88087 | 11480 ft | 281 kts | 225° |
| 2026-05-07 14:51 | 46.20889 | 5.86086 | 11124 ft | 280 kts | 224° |
| 2026-05-07 14:52 | 46.19518 | 5.84090 | 10769 ft | 279 kts | 224° |
| 2026-05-07 14:52 | 46.18154 | 5.82107 | 10419 ft | 278 kts | 223° |
| 2026-05-07 14:52 | 46.16794 | 5.80133 | 10062 ft | 277 kts | 223° |
| 2026-05-07 14:52 | 46.15431 | 5.78161 | 9692 ft | 277 kts | 223° |
| 2026-05-07 14:53 | 46.14079 | 5.76206 | 9327 ft | 274 kts | 224° |
| 2026-05-07 14:53 | 46.12750 | 5.74285 | 9192 ft | 265 kts | 223° |
| 2026-05-07 14:53 | 46.11452 | 5.72477 | 9097 ft | 254 kts | 216° |
| 2026-05-07 14:53 | 46.09886 | 5.71536 | 8994 ft | 241 kts | 185° |
| 2026-05-07 14:54 | 46.08265 | 5.71874 | 8717 ft | 239 kts | 157° |
| 2026-05-07 14:54 | 46.06914 | 5.73349 | 8049 ft | 251 kts | 136° |
| 2026-05-07 14:54 | 46.05687 | 5.75110 | 7729 ft | 242 kts | 134° |
| 2026-05-07 14:54 | 46.04757 | 5.77075 | 7178 ft | 245 kts | 114° |
| 2026-05-07 14:55 | 46.04373 | 5.79444 | 6762 ft | 241 kts | 91° |
| 2026-05-07 14:55 | 46.04588 | 5.81768 | 6529 ft | 229 kts | 72° |
| 2026-05-07 14:55 | 46.05280 | 5.83753 | 6284 ft | 217 kts | 53° |
| 2026-05-07 14:55 | 46.06279 | 5.85312 | 6045 ft | 209 kts | 44° |
| 2026-05-07 14:56 | 46.07294 | 5.86789 | 5727 ft | 204 kts | 44° |
| 2026-05-07 14:56 | 46.08280 | 5.88224 | 5451 ft | 199 kts | 44° |
| 2026-05-07 14:56 | 46.09242 | 5.89624 | 5191 ft | 193 kts | 43° |
| 2026-05-07 14:56 | 46.10172 | 5.90978 | 4943 ft | 185 kts | 43° |
| 2026-05-07 14:57 | 46.11063 | 5.92275 | 4696 ft | 178 kts | 43° |
| 2026-05-07 14:57 | 46.11914 | 5.93515 | 4465 ft | 172 kts | 41° |
| 2026-05-07 14:57 | 46.12749 | 5.94730 | 4237 ft | 170 kts | 42° |
| 2026-05-07 14:57 | 46.13574 | 5.95934 | 4005 ft | 168 kts | 41° |
| 2026-05-07 14:58 | 46.14393 | 5.97128 | 3781 ft | 167 kts | 41° |
| 2026-05-07 14:58 | 46.15210 | 5.98319 | 3573 ft | 168 kts | 43° |
| 2026-05-07 14:58 | 46.16028 | 5.99513 | 3351 ft | 168 kts | 43° |
| 2026-05-07 14:58 | 46.16794 | 6.00632 | 3145 ft | 168 kts | 43° |
| 2026-05-07 14:59 | 46.16888 | 6.00770 | 3123 ft | 168 kts | 44° |
| 2026-05-07 14:59 | 46.17701 | 6.01971 | 2895 ft | 167 kts | 43° |
| 2026-05-07 14:59 | 46.18503 | 6.03137 | 2684 ft | 155 kts | 43° |
| 2026-05-07 14:59 | 46.19220 | 6.04182 | 2468 ft | 139 kts | 42° |
| 2026-05-07 15:00 | 46.19880 | 6.05148 | 2273 ft | 132 kts | 44° |
| 2026-05-07 15:00 | 46.20515 | 6.06076 | 2085 ft | 128 kts | 45° |
| 2026-05-07 15:00 | 46.21143 | 6.06992 | 1923 ft | 127 kts | 44° |
| 2026-05-07 15:00 | 46.21760 | 6.07891 | 1747 ft | 126 kts | 46° |
| 2026-05-07 15:01 | 46.22369 | 6.08785 | 1585 ft | 126 kts | 46° |
| 2026-05-07 15:01 | 46.22987 | 6.09693 | 1419 ft | 123 kts | 47° |
| 2026-05-07 15:01 | 46.23490 | 6.10433 | 1389 ft | 82 kts | 45° |
| 2026-05-07 15:01 | 46.23772 | 6.10846 | 1382 ft | 38 kts | 45° |
| 2026-05-07 15:02 | 46.23865 | 6.11031 | 1380 ft | 15 kts | 103° |
| 2026-05-07 15:02 | 46.23769 | 6.11086 | 1382 ft | 10 kts | 171° |
| 2026-05-07 15:02 | 46.23711 | 6.11075 | 1386 ft | 6 kts | 197° |
| 2026-05-07 15:02 | 46.23685 | 6.11068 | 1387 ft | 1 kts | 180° |
| 2026-05-07 15:03 | 46.23683 | 6.11068 | 1387 ft | 0 kts | 180° |
| 2026-05-07 15:03 | 46.23667 | 6.11074 | 1391 ft | 6 kts | 150° |
| 2026-05-07 15:03 | 46.23623 | 6.11136 | 1396 ft | 9 kts | 136° |
| 2026-05-07 15:03 | 46.23569 | 6.11164 | 1397 ft | 9 kts | 220° |
| 2026-05-07 15:04 | 46.23535 | 6.11109 | 1393 ft | 4 kts | 229° |
| 2026-05-07 15:04 | 46.23515 | 6.11107 | 1394 ft | 3 kts | 146° |
| 2026-05-07 15:04 | 46.23493 | 6.11132 | 1395 ft | 5 kts | 134° |
| 2026-05-07 15:04 | 46.23469 | 6.11169 | 1393 ft | 2 kts | 132° |
| 2026-05-07 15:05 | 46.23459 | 6.11184 | 1393 ft | 0 kts | 135° |
| 2026-05-07 15:06 | 46.23498 | 6.11202 | 1402 ft | 0 kts | 136° |